F/V Jeremi Simon — FHAF — position and weather

sailwx.info

Track history (hours):
 
Tides and Currents Weather Stations Pressure Air Temp Water Temp Dewpoint Dewpoint Depression Visibility Wind Speed Wind Dir Waves Ship Positions

F/V Jeremi Simon

Last reported at 2017-Dec-15 16:00 UTC. Time now 2017-Dec-16 06:59 UTC.
Position N 46°42' W 001°57'.

Length 19 m.

Type: Other ship. MMSI: 227415000.

Date/timePositionNaut miles runAvg speedWind from/ knotsBaromVisibWave heightAir tempDewpointWater temp
2017-Dec-15 16:00N 46°42' W 001°57'0 0.0
2017-Dec-15 10:10N 46°42' W 001°57'0 0.0
2017-Dec-15 10:00N 46°42' W 001°57'0 0.0
2017-Dec-15 09:29N 46°42' W 001°57'0 0.0
2017-Dec-15 09:00N 46°42' W 001°57'0 0.0
2017-Dec-15 08:30N 46°42' W 001°57'0 0.0
2017-Dec-15 08:00N 46°42' W 001°57'0 0.0
2017-Dec-15 07:30N 46°42' W 001°57'0 0.0
2017-Dec-14 10:34N 46°42' W 001°57'0 0.0
2017-Dec-14 10:28N 46°42' W 001°57'0 0.0
2017-Dec-12 09:07N 46°42' W 001°57'0 0.6
2017-Dec-12 09:00N 46°42' W 001°56'0 0.0
2017-Dec-12 08:31N 46°42' W 001°56'0 0.0
2017-Dec-12 08:00N 46°42' W 001°56'0 0.0
2017-Dec-12 07:30N 46°42' W 001°56'  
2017-Dec-08 10:37N 46°42' W 001°57'0 0.0
2017-Dec-08 10:30N 46°42' W 001°57'2 4.2
2017-Dec-08 10:00N 46°40' W 001°57'5 9.8
2017-Dec-08 09:30N 46°35' W 001°54'5 9.7
2017-Dec-08 09:00N 46°31' W 001°52'3 6.8
2017-Dec-08 08:30N 46°29' W 001°47'1 1.5
2017-Dec-08 08:00N 46°30' W 001°47'0 0.0
2017-Dec-08 07:30N 46°30' W 001°47'  
Track history (hours):
 
Tides and Currents Weather Stations Pressure Air Temp Water Temp Dewpoint Dewpoint Depression Visibility Wind Speed Wind Dir Waves Ship Positions

F/V Jeremi Simon

Last reported at 2017-Dec-15 16:00 UTC. Time now 2017-Dec-16 06:59 UTC.
Position N 46°42' W 001°57'.

Length 19 m.

Type: Other ship. MMSI: 227415000.

Date/timePositionNaut miles runAvg speedWind from/ knotsBaromVisibWave heightAir tempDewpointWater temp
2017-Dec-15 16:00N 46°42' W 001°57'0 0.0
2017-Dec-15 10:10N 46°42' W 001°57'0 0.0
2017-Dec-15 10:00N 46°42' W 001°57'0 0.0
2017-Dec-15 09:29N 46°42' W 001°57'0 0.0
2017-Dec-15 09:00N 46°42' W 001°57'0 0.0
2017-Dec-15 08:30N 46°42' W 001°57'0 0.0
2017-Dec-15 08:00N 46°42' W 001°57'0 0.0
2017-Dec-15 07:30N 46°42' W 001°57'0 0.0
2017-Dec-14 10:34N 46°42' W 001°57'0 0.0
2017-Dec-14 10:28N 46°42' W 001°57'0 0.0
2017-Dec-12 09:07N 46°42' W 001°57'0 0.6
2017-Dec-12 09:00N 46°42' W 001°56'0 0.0
2017-Dec-12 08:31N 46°42' W 001°56'0 0.0
2017-Dec-12 08:00N 46°42' W 001°56'0 0.0
2017-Dec-12 07:30N 46°42' W 001°56'  
2017-Dec-08 10:37N 46°42' W 001°57'0 0.0
2017-Dec-08 10:30N 46°42' W 001°57'2 4.2
2017-Dec-08 10:00N 46°40' W 001°57'5 9.8
2017-Dec-08 09:30N 46°35' W 001°54'5 9.7
2017-Dec-08 09:00N 46°31' W 001°52'3 6.8
2017-Dec-08 08:30N 46°29' W 001°47'1 1.5
2017-Dec-08 08:00N 46°30' W 001°47'0 0.0
2017-Dec-08 07:30N 46°30' W 001°47'  

Dump ship's entire track history